Estación Meteorológica Peña el Pijo (Robertgarden) [ 03/26/19 15:34:36 CET ]

Fecha Hora Presion(HPa) Temp (°C) Humedad % Rocio (°C) Viento ( m/s) Direccion Lluvia 1Hora(mm) Lluvia 24H(mm) LLuvia Total(mm)
2019-Jan-05 01:01:54 1018.800 -1.9 65 -7.6         161.09
2019-Jan-05 02:02:24 1018.700 -2.2 65 -7.9         161.09
2019-Jan-05 03:02:01 1019.100 -2.7 66 -8.2         161.09
2019-Jan-05 04:02:14 1019.000 -3.1 65 -8.8         161.09
2019-Jan-05 05:04:38 1018.600 -3.4 65 -9.1         161.09
2019-Jan-05 06:01:49 1018.800 -3.5 66 -9.0         161.09
2019-Jan-05 07:01:48 1019.200 -3.6 66 -9.1         161.09
2019-Jan-05 08:01:34 1019.300 -3.5 66 -9.0         161.09
2019-Jan-05 09:01:46 1019.800 -3.4 67 -8.7         161.09
2019-Jan-05 10:01:44 1020.000 1.8 62 -4.7         161.09
2019-Jan-05 11:01:39 1020.100 8.4 42 -3.8         161.09
2019-Jan-05 12:01:39 1019.400 14.0 30 -3.3         161.09
2019-Jan-05 13:01:49 1018.500 14.8 24 -5.8         161.09
2019-Jan-05 14:01:31 1018.000 16.6 20 -6.4         161.09
2019-Jan-05 15:01:53 1017.900 16.9 18 -7.9         161.09
2019-Jan-05 16:01:20 1017.800 16.6 18 -8.2         161.09
2019-Jan-05 17:01:14 1017.500 13.4 21 -8.6         161.09
2019-Jan-05 18:01:50 1017.700 8.9 28 -8.7         161.09
2019-Jan-05 19:01:48 1018.200 4.4 37 -9.1         161.09
2019-Jan-05 20:01:45 1018.700 3.9 40 -8.5         161.09
2019-Jan-05 21:01:39 1019.100 3.1 42 -8.6         161.09
2019-Jan-05 22:01:48 1019.300 2.2 45 -8.6         161.09
2019-Jan-05 23:01:42 1018.900 1.6 48 -8.3         161.09

Temperatura Máxima:16°    Temperatura Mínima:-3°
Presión Máxima:1020.100 Hpa    Presión Mínima:1017.500 Hpa


Volver